Dobrodošli na spletni strani vremenske postaje Senovo. Vse informacije so informativnega značaja, saj vremenska postaja ni del državne mreže meteoroloških postaj. AKTUALNIH OBVESTIL NI.


Sneg/Led Od: 23-02-2018 00:00 Do: 23:59 Opozorilo za: Sneg/Led Stopnja: Rumena info button

Pogled proti Armezu več informacij Pogled proti Armezu


Lisca več informacij Lisca


Radar strel več informacij blitzortung!


opozorilo za sneg/led več informacij rain snow radar


Obiščite še:

Template documentation
and downloads

And another site



Weather Underground, zgodovina - Tekstovno

Dnevni povzetek za Januar 4, 2018 Enote:  Obe    Angleško   Metrično
« Predhodni Dan
Naslednji Dan »
Dnevni Tedenski Mesečni Letni Po meri
  Višja: Nižja: Povprečje:
Temperatura: TemperatureC °F /  -17.8 °C -1.7 °F /  -18.7 °C 1.2 °F /  -17.1 °C
Točka rosišča: DewpointC °F /  -17.8 °C -2.6 °F /  -19.2 °C 0.5 °F /  -17.5 °C
Vlažnost: Humidity % 90 % 95 %
Hitrost vetra: WindSpeedKMH mph /  0 km/h - 0.3 mph /  0.5 km/h
Sunki vetra: WindSpeedGustKMH mph /  0 km/h - -
Veter:- - South
Zračni tlak: PressurehPa in /  0 hPa 1001.9 in /  33924.3 hPa -
Padavine: 0.3 in /  7.62 mm    
Historical Graphs
 
 
Tabelarni podarki za Januar 4, 2018
Čas Temperatura Točka rosišča Zračni tlak Veter Hitrost vetra Sunki vetra Vlažnost Intenziteta padavin (urna)
TemperatureC °F /  -17.8 °C DewpointC °F /  -17.8 °C PressurehPa in /  0 hPa Calm     Humidity % HourlyPrecipMM in /  0 mm
00:00 -0.3 °F /  -17.9 °C -1.7 °F /  -18.7 °C 1005.0 in /  34029.3 hPa Calm     90 % 0.0 in /  0 mm
00:05 -0.4 °F /  -18 °C -1.8 °F /  -18.8 °C 1005.0 in /  34029.3 hPa Calm     90 % 0.0 in /  0 mm
00:09 -0.4 °F /  -18 °C -1.8 °F /  -18.8 °C 1005.0 in /  34029.3 hPa Calm     90 % 0.0 in /  0 mm
00:14 -0.4 °F /  -18 °C -1.8 °F /  -18.8 °C 1005.0 in /  34029.3 hPa Calm     90 % 0.0 in /  0 mm
00:15 -0.4 °F /  -18 °C -1.8 °F /  -18.8 °C 1005.0 in /  34029.3 hPa Calm     90 % 0.0 in /  0 mm
00:20 -0.3 °F /  -17.9 °C -1.6 °F /  -18.7 °C 1005.0 in /  34029.3 hPa Calm     91 % 0.0 in /  0 mm
00:22 -0.3 °F /  -17.9 °C -1.6 °F /  -18.7 °C 1005.0 in /  34029.3 hPa Calm     91 % 0.0 in /  0 mm
00:27 -0.3 °F /  -17.9 °C -1.6 °F /  -18.7 °C 1005.0 in /  34029.3 hPa Calm     91 % 0.0 in /  0 mm
00:32 -0.3 °F /  -17.9 °C -1.6 °F /  -18.7 °C 1005.0 in /  34029.3 hPa Calm     91 % 0.0 in /  0 mm
00:34 -0.3 °F /  -17.9 °C -1.6 °F /  -18.7 °C 1005.0 in /  34029.3 hPa Calm     91 % 0.0 in /  0 mm
00:39 -0.3 °F /  -17.9 °C -1.6 °F /  -18.7 °C 1005.0 in /  34029.3 hPa Calm     91 % 0.0 in /  0 mm
00:40 -0.3 °F /  -17.9 °C -1.6 °F /  -18.7 °C 1005.0 in /  34029.3 hPa Calm     91 % 0.0 in /  0 mm
00:45 -0.3 °F /  -17.9 °C -1.6 °F /  -18.7 °C 1005.0 in /  34029.3 hPa Calm     91 % 0.0 in /  0 mm
00:46 -0.3 °F /  -17.9 °C -1.6 °F /  -18.7 °C 1005.0 in /  34029.3 hPa Calm     91 % 0.0 in /  0 mm
00:51 -0.3 °F /  -17.9 °C -1.6 °F /  -18.7 °C 1005.0 in /  34029.3 hPa Calm     91 % 0.0 in /  0 mm
00:54 -0.3 °F /  -17.9 °C -1.6 °F /  -18.7 °C 1005.0 in /  34029.3 hPa Calm     91 % 0.0 in /  0 mm
00:59 -0.2 °F /  -17.9 °C -1.3 °F /  -18.5 °C 1005.0 in /  34029.3 hPa Calm     92 % 0.0 in /  0 mm
01:00 -0.2 °F /  -17.9 °C -1.3 °F /  -18.5 °C 1005.0 in /  34029.3 hPa Calm     92 % 0.0 in /  0 mm
01:06 -0.2 °F /  -17.9 °C -1.3 °F /  -18.5 °C 1005.0 in /  34029.3 hPa Calm     92 % 0.0 in /  0 mm
01:11 -0.1 °F /  -17.8 °C -1.2 °F /  -18.4 °C 1005.0 in /  34029.3 hPa Calm     92 % 0.0 in /  0 mm
01:16 -0.1 °F /  -17.8 °C -1.2 °F /  -18.4 °C 1006.0 in /  34063.2 hPa Calm     92 % 0.0 in /  0 mm
01:19 -0.1 °F /  -17.8 °C -1.2 °F /  -18.4 °C 1006.0 in /  34063.2 hPa Calm     92 % 0.0 in /  0 mm
01:24 -0.1 °F /  -17.8 °C -1.2 °F /  -18.4 °C 1006.0 in /  34063.2 hPa Calm     92 % 0.0 in /  0 mm
01:29 -0.1 °F /  -17.8 °C -1.2 °F /  -18.4 °C 1005.0 in /  34029.3 hPa Calm     92 % 0.0 in /  0 mm
01:30 0.0 °F /  -17.8 °C -1.2 °F /  -18.4 °C 1005.0 in /  34029.3 hPa Calm     92 % 0.0 in /  0 mm
01:32 0.0 °F /  -17.8 °C -1.2 °F /  -18.4 °C 1005.0 in /  34029.3 hPa Calm     92 % 0.0 in /  0 mm
01:35 0.0 °F /  -17.8 °C -1.2 °F /  -18.4 °C 1005.0 in /  34029.3 hPa NW 0.2 mph /  0.3 km/h 3.2 mph /  5.1 km/h 92 % 0.0 in /  0 mm
01:43 0.0 °F /  -17.8 °C -1.0 °F /  -18.3 °C 1006.0 in /  34063.2 hPa NW 0.3 mph /  0.5 km/h 3.2 mph /  5.1 km/h 93 % 0.0 in /  0 mm
01:45 0.0 °F /  -17.8 °C -1.0 °F /  -18.3 °C 1006.0 in /  34063.2 hPa NW 0.3 mph /  0.5 km/h 3.2 mph /  5.1 km/h 93 % 0.0 in /  0 mm
01:48 0.0 °F /  -17.8 °C -1.0 °F /  -18.3 °C 1006.0 in /  34063.2 hPa Calm   4.0 mph /  6.4 km/h 93 % 0.0 in /  0 mm
01:53 0.0 °F /  -17.8 °C -1.0 °F /  -18.3 °C 1006.0 in /  34063.2 hPa NW 0.3 mph /  0.5 km/h 4.0 mph /  6.4 km/h 93 % 0.0 in /  0 mm
01:56 0.0 °F /  -17.8 °C -1.0 °F /  -18.3 °C 1006.0 in /  34063.2 hPa NW 0.3 mph /  0.5 km/h 4.0 mph /  6.4 km/h 93 % 0.0 in /  0 mm
02:01 0.1 °F /  -17.7 °C -0.9 °F /  -18.3 °C 1006.0 in /  34063.2 hPa Calm     93 % 0.0 in /  0 mm
02:02 0.1 °F /  -17.7 °C -0.9 °F /  -18.3 °C 1006.0 in /  34063.2 hPa Calm     93 % 0.0 in /  0 mm
02:07 0.0 °F /  -17.8 °C -1.0 °F /  -18.3 °C 1006.0 in /  34063.2 hPa Calm     93 % 0.0 in /  0 mm
02:08 0.0 °F /  -17.8 °C -1.0 °F /  -18.3 °C 1006.0 in /  34063.2 hPa Calm     93 % 0.0 in /  0 mm
02:13 0.0 °F /  -17.8 °C -1.0 °F /  -18.3 °C 1006.0 in /  34063.2 hPa Calm     93 % 0.0 in /  0 mm
02:19 -0.1 °F /  -17.8 °C -1.1 °F /  -18.4 °C 1006.0 in /  34063.2 hPa Calm     93 % 0.0 in /  0 mm
02:20 -0.1 °F /  -17.8 °C -1.1 °F /  -18.4 °C 1006.0 in /  34063.2 hPa Calm     93 % 0.0 in /  0 mm
02:25 -0.2 °F /  -17.9 °C -1.2 °F /  -18.4 °C 1006.0 in /  34063.2 hPa Calm     93 % 0.0 in /  0 mm
02:30 -0.2 °F /  -17.9 °C -1.2 °F /  -18.4 °C 1005.0 in /  34029.3 hPa Calm     93 % 0.0 in /  0 mm
02:34 -0.3 °F /  -17.9 °C -1.3 °F /  -18.5 °C 1005.0 in /  34029.3 hPa Calm     93 % 0.0 in /  0 mm
02:35 -0.3 °F /  -17.9 °C -1.3 °F /  -18.5 °C 1005.0 in /  34029.3 hPa Calm     93 % 0.0 in /  0 mm
02:39 -0.3 °F /  -17.9 °C -1.3 °F /  -18.5 °C 1005.0 in /  34029.3 hPa Calm     93 % 0.0 in /  0 mm
02:41 -0.3 °F /  -17.9 °C -1.3 °F /  -18.5 °C 1005.0 in /  34029.3 hPa Calm     93 % 0.0 in /  0 mm
02:50 -0.5 °F /  -18.1 °C -1.5 °F /  -18.6 °C 1005.0 in /  34029.3 hPa Calm     93 % 0.0 in /  0 mm
02:51 -0.5 °F /  -18.1 °C -1.5 °F /  -18.6 °C 1005.0 in /  34029.3 hPa Calm     93 % 0.0 in /  0 mm
02:56 -0.5 °F /  -18.1 °C -1.5 °F /  -18.6 °C 1005.0 in /  34029.3 hPa Calm     93 % 0.0 in /  0 mm
03:01 -0.5 °F /  -18.1 °C -1.5 °F /  -18.6 °C 1005.0 in /  34029.3 hPa Calm     93 % 0.0 in /  0 mm
03:02 -0.5 °F /  -18.1 °C -1.5 °F /  -18.6 °C 1005.0 in /  34029.3 hPa Calm     93 % 0.0 in /  0 mm
03:07 -0.5 °F /  -18.1 °C -1.5 °F /  -18.6 °C 1005.0 in /  34029.3 hPa Calm     93 % 0.0 in /  0 mm
03:10 -0.6 °F /  -18.1 °C -1.6 °F /  -18.7 °C 1005.0 in /  34029.3 hPa Calm     93 % 0.0 in /  0 mm
03:17 -0.7 °F /  -18.2 °C -1.7 °F /  -18.7 °C 1005.0 in /  34029.3 hPa Calm     93 % 0.0 in /  0 mm
03:20 -0.8 °F /  -18.2 °C -1.8 °F /  -18.8 °C 1005.0 in /  34029.3 hPa Calm     93 % 0.0 in /  0 mm
03:25 -0.8 °F /  -18.2 °C -1.8 °F /  -18.8 °C 1005.0 in /  34029.3 hPa Calm   2.1 mph /  3.4 km/h 93 % 0.0 in /  0 mm
03:30 -0.8 °F /  -18.2 °C -1.8 °F /  -18.8 °C 1005.0 in /  34029.3 hPa Calm   2.1 mph /  3.4 km/h 93 % 0.0 in /  0 mm
03:35 -0.9 °F /  -18.3 °C -1.9 °F /  -18.8 °C 1005.0 in /  34029.3 hPa Calm     93 % 0.0 in /  0 mm
03:40 -1.0 °F /  -18.3 °C -1.8 °F /  -18.8 °C 1005.0 in /  34029.3 hPa Calm     94 % 0.0 in /  0 mm
03:42 -1.0 °F /  -18.3 °C -1.8 °F /  -18.8 °C 1005.0 in /  34029.3 hPa Calm     94 % 0.0 in /  0 mm
03:47 -1.0 °F /  -18.3 °C -1.8 °F /  -18.8 °C 1005.0 in /  34029.3 hPa Calm     94 % 0.0 in /  0 mm
03:48 -1.0 °F /  -18.3 °C -1.8 °F /  -18.8 °C 1005.0 in /  34029.3 hPa Calm     94 % 0.0 in /  0 mm
03:53 -1.0 °F /  -18.3 °C -1.8 °F /  -18.8 °C 1005.0 in /  34029.3 hPa Calm     94 % 0.0 in /  0 mm
03:54 -1.0 °F /  -18.3 °C -1.8 °F /  -18.8 °C 1005.0 in /  34029.3 hPa Calm     94 % 0.0 in /  0 mm
03:59 -1.1 °F /  -18.4 °C -1.9 °F /  -18.8 °C 1005.0 in /  34029.3 hPa Calm     94 % 0.0 in /  0 mm
04:02 -1.1 °F /  -18.4 °C -1.9 °F /  -18.8 °C 1005.0 in /  34029.3 hPa Calm     94 % 0.0 in /  0 mm
04:07 -1.1 °F /  -18.4 °C -1.9 °F /  -18.8 °C 1005.0 in /  34029.3 hPa Calm     94 % 0.0 in /  0 mm
04:12 -1.2 °F /  -18.4 °C -2.1 °F /  -18.9 °C 1005.0 in /  34029.3 hPa Calm     94 % 0.0 in /  0 mm
04:17 -1.2 °F /  -18.4 °C -2.1 °F /  -18.9 °C 1005.0 in /  34029.3 hPa Calm     94 % 0.0 in /  0 mm
04:18 -1.2 °F /  -18.4 °C -2.1 °F /  -18.9 °C 1005.0 in /  34029.3 hPa Calm     94 % 0.0 in /  0 mm
04:23 -1.2 °F /  -18.4 °C -2.1 °F /  -18.9 °C 1005.0 in /  34029.3 hPa Calm     94 % 0.0 in /  0 mm
04:25 -1.2 °F /  -18.4 °C -2.1 °F /  -18.9 °C 1005.0 in /  34029.3 hPa Calm     94 % 0.0 in /  0 mm
04:30 -1.3 °F /  -18.5 °C -2.2 °F /  -19 °C 1003.9 in /  33992.1 hPa Calm     94 % 0.0 in /  0 mm
04:31 -1.3 °F /  -18.5 °C -2.2 °F /  -19 °C 1003.9 in /  33992.1 hPa Calm     94 % 0.0 in /  0 mm
04:32 -1.3 °F /  -18.5 °C -2.2 °F /  -19 °C 1003.9 in /  33992.1 hPa Calm     94 % 0.0 in /  0 mm
04:36 -1.3 °F /  -18.5 °C -2.2 °F /  -19 °C 1003.9 in /  33992.1 hPa Calm     94 % 0.0 in /  0 mm
04:37 -1.3 °F /  -18.5 °C -2.2 °F /  -19 °C 1003.9 in /  33992.1 hPa Calm     94 % 0.0 in /  0 mm
04:44 -1.4 °F /  -18.6 °C -2.2 °F /  -19 °C 1005.0 in /  34029.3 hPa Calm     94 % 0.0 in /  0 mm
04:49 -1.4 °F /  -18.6 °C -2.2 °F /  -19 °C 1005.0 in /  34029.3 hPa Calm     94 % 0.0 in /  0 mm
04:51 -1.4 °F /  -18.6 °C -2.2 °F /  -19 °C 1005.0 in /  34029.3 hPa Calm     94 % 0.0 in /  0 mm
04:52 -1.4 °F /  -18.6 °C -2.2 °F /  -19 °C 1005.0 in /  34029.3 hPa Calm     94 % 0.0 in /  0 mm
04:57 -1.4 °F /  -18.6 °C -2.2 °F /  -19 °C 1003.9 in /  33992.1 hPa Calm     94 % 0.0 in /  0 mm
05:01 -1.4 °F /  -18.6 °C -2.2 °F /  -19 °C 1003.9 in /  33992.1 hPa Calm     94 % 0.0 in /  0 mm
05:07 -1.5 °F /  -18.6 °C -2.3 °F /  -19.1 °C 1003.9 in /  33992.1 hPa Calm     94 % 0.0 in /  0 mm
05:10 -1.5 °F /  -18.6 °C -2.3 °F /  -19.1 °C 1003.9 in /  33992.1 hPa Calm     94 % 0.0 in /  0 mm
05:14 -1.5 °F /  -18.6 °C -2.3 °F /  -19.1 °C 1003.9 in /  33992.1 hPa Calm     94 % 0.0 in /  0 mm
05:15 -1.5 °F /  -18.6 °C -2.3 °F /  -19.1 °C 1003.9 in /  33992.1 hPa Calm     94 % 0.0 in /  0 mm
05:16 -1.5 °F /  -18.6 °C -2.3 °F /  -19.1 °C 1003.9 in /  33992.1 hPa Calm     94 % 0.0 in /  0 mm
05:17 -1.5 °F /  -18.6 °C -2.3 °F /  -19.1 °C 1003.9 in /  33992.1 hPa Calm     94 % 0.0 in /  0 mm
05:18 -1.5 °F /  -18.6 °C -2.3 °F /  -19.1 °C 1003.9 in /  33992.1 hPa Calm     94 % 0.0 in /  0 mm
05:20 -1.5 °F /  -18.6 °C -2.3 °F /  -19.1 °C 1003.9 in /  33992.1 hPa Calm     94 % 0.0 in /  0 mm
05:22 -1.5 °F /  -18.6 °C -2.3 °F /  -19.1 °C 1003.9 in /  33992.1 hPa Calm     94 % 0.0 in /  0 mm
05:28 -1.5 °F /  -18.6 °C -2.3 °F /  -19.1 °C 1003.9 in /  33992.1 hPa Calm     94 % 0.0 in /  0 mm
05:32 -1.6 °F /  -18.7 °C -2.4 °F /  -19.1 °C 1003.9 in /  33992.1 hPa Calm     94 % 0.0 in /  0 mm
05:37 -1.6 °F /  -18.7 °C -2.4 °F /  -19.1 °C 1003.9 in /  33992.1 hPa Calm     94 % 0.0 in /  0 mm
05:39 -1.6 °F /  -18.7 °C -2.4 °F /  -19.1 °C 1003.9 in /  33992.1 hPa Calm     94 % 0.0 in /  0 mm
05:42 -1.6 °F /  -18.7 °C -2.4 °F /  -19.1 °C 1003.9 in /  33992.1 hPa Calm     94 % 0.0 in /  0 mm
05:44 -1.6 °F /  -18.7 °C -2.4 °F /  -19.1 °C 1005.0 in /  34029.3 hPa Calm     94 % 0.0 in /  0 mm
05:47 -1.6 °F /  -18.7 °C -2.4 °F /  -19.1 °C 1005.0 in /  34029.3 hPa Calm     94 % 0.0 in /  0 mm
05:52 -1.6 °F /  -18.7 °C -2.4 °F /  -19.1 °C 1005.0 in /  34029.3 hPa Calm     94 % 0.0 in /  0 mm
05:53 -1.6 °F /  -18.7 °C -2.4 °F /  -19.1 °C 1005.0 in /  34029.3 hPa Calm     94 % 0.0 in /  0 mm
05:54 -1.6 °F /  -18.7 °C -2.4 °F /  -19.1 °C 1005.0 in /  34029.3 hPa Calm     94 % 0.0 in /  0 mm
06:04 -1.6 °F /  -18.7 °C -2.4 °F /  -19.1 °C 1005.0 in /  34029.3 hPa SW 1.6 mph /  2.6 km/h 7.6 mph /  12.2 km/h 94 % 0.0 in /  0 mm
06:06 -1.6 °F /  -18.7 °C -2.4 °F /  -19.1 °C 1005.0 in /  34029.3 hPa SW 1.3 mph /  2.1 km/h 7.6 mph /  12.2 km/h 94 % 0.0 in /  0 mm
06:11 -1.6 °F /  -18.7 °C -2.4 °F /  -19.1 °C 1005.0 in /  34029.3 hPa WSW 1.4 mph /  2.3 km/h 4.3 mph /  6.9 km/h 94 % 0.0 in /  0 mm
06:13 -1.6 °F /  -18.7 °C -2.4 °F /  -19.1 °C 1005.0 in /  34029.3 hPa WSW 1.3 mph /  2.1 km/h 4.3 mph /  6.9 km/h 94 % 0.0 in /  0 mm
06:16 -1.6 °F /  -18.7 °C -2.4 °F /  -19.1 °C 1005.0 in /  34029.3 hPa WSW 1.3 mph /  2.1 km/h 4.3 mph /  6.9 km/h 94 % 0.0 in /  0 mm
06:19 -1.6 °F /  -18.7 °C -2.4 °F /  -19.1 °C 1005.0 in /  34029.3 hPa WSW 1.1 mph /  1.8 km/h 3.5 mph /  5.6 km/h 94 % 0.0 in /  0 mm
06:20 -1.6 °F /  -18.7 °C -2.4 °F /  -19.1 °C 1005.0 in /  34029.3 hPa WSW 0.8 mph /  1.3 km/h 2.6 mph /  4.2 km/h 94 % 0.0 in /  0 mm
06:25 -1.6 °F /  -18.7 °C -2.4 °F /  -19.1 °C 1005.0 in /  34029.3 hPa SSW 0.5 mph /  0.8 km/h 4.7 mph /  7.6 km/h 94 % 0.0 in /  0 mm
06:27 -1.6 °F /  -18.7 °C -2.4 °F /  -19.1 °C 1006.0 in /  34063.2 hPa SSW 0.3 mph /  0.5 km/h 4.7 mph /  7.6 km/h 94 % 0.0 in /  0 mm
06:29 -1.6 °F /  -18.7 °C -2.4 °F /  -19.1 °C 1006.0 in /  34063.2 hPa SSW 0.5 mph /  0.8 km/h 4.7 mph /  7.6 km/h 94 % 0.0 in /  0 mm
06:31 -1.6 °F /  -18.7 °C -2.4 °F /  -19.1 °C 1006.0 in /  34063.2 hPa SSW 0.5 mph /  0.8 km/h 4.3 mph /  6.9 km/h 94 % 0.0 in /  0 mm
06:36 -1.6 °F /  -18.7 °C -2.4 °F /  -19.1 °C 1006.0 in /  34063.2 hPa SSW 0.3 mph /  0.5 km/h 3.2 mph /  5.1 km/h 94 % 0.0 in /  0 mm
06:37 -1.6 °F /  -18.7 °C -2.4 °F /  -19.1 °C 1006.0 in /  34063.2 hPa SSW 0.3 mph /  0.5 km/h 3.2 mph /  5.1 km/h 94 % 0.0 in /  0 mm
06:40 -1.6 °F /  -18.7 °C -2.4 °F /  -19.1 °C 1006.0 in /  34063.2 hPa SSW 0.3 mph /  0.5 km/h 3.2 mph /  5.1 km/h 94 % 0.0 in /  0 mm
06:42 -1.6 °F /  -18.7 °C -2.4 °F /  -19.1 °C 1006.0 in /  34063.2 hPa SSW 0.3 mph /  0.5 km/h 3.2 mph /  5.1 km/h 94 % 0.0 in /  0 mm
06:47 -1.6 °F /  -18.7 °C -2.4 °F /  -19.1 °C 1006.0 in /  34063.2 hPa SSW 0.2 mph /  0.3 km/h 2.6 mph /  4.2 km/h 94 % 0.0 in /  0 mm
06:50 -1.6 °F /  -18.7 °C -2.4 °F /  -19.1 °C 1006.0 in /  34063.2 hPa SSW 0.2 mph /  0.3 km/h 2.6 mph /  4.2 km/h 94 % 0.0 in /  0 mm
06:53 -1.6 °F /  -18.7 °C -2.4 °F /  -19.1 °C 1006.0 in /  34063.2 hPa Calm   2.1 mph /  3.4 km/h 94 % 0.0 in /  0 mm
06:58 -1.7 °F /  -18.7 °C -2.6 °F /  -19.2 °C 1007.0 in /  34097 hPa Calm     94 % 0.0 in /  0 mm
06:59 -1.7 °F /  -18.7 °C -2.6 °F /  -19.2 °C 1007.0 in /  34097 hPa Calm     94 % 0.0 in /  0 mm
07:01 -1.7 °F /  -18.7 °C -2.6 °F /  -19.2 °C 1007.0 in /  34097 hPa Calm     94 % 0.0 in /  0 mm
07:06 -1.6 °F /  -18.7 °C -2.4 °F /  -19.1 °C 1007.0 in /  34097 hPa Calm     94 % 0.0 in /  0 mm
07:11 -1.7 °F /  -18.7 °C -2.6 °F /  -19.2 °C 1007.0 in /  34097 hPa Calm     94 % 0.0 in /  0 mm
07:12 -1.7 °F /  -18.7 °C -2.6 °F /  -19.2 °C 1007.0 in /  34097 hPa Calm     94 % 0.0 in /  0 mm
07:17 -1.7 °F /  -18.7 °C -2.6 °F /  -19.2 °C 1007.0 in /  34097 hPa Calm     94 % 0.0 in /  0 mm
07:23 -1.7 °F /  -18.7 °C -2.4 °F /  -19.1 °C 1007.0 in /  34097 hPa Calm     95 % 0.0 in /  0 mm
07:27 -1.7 °F /  -18.7 °C -2.4 °F /  -19.1 °C 1007.0 in /  34097 hPa Calm     95 % 0.0 in /  0 mm
07:32 -1.7 °F /  -18.7 °C -2.4 °F /  -19.1 °C 1007.0 in /  34097 hPa Calm     95 % 0.0 in /  0 mm
07:33 -1.7 °F /  -18.7 °C -2.4 °F /  -19.1 °C 1007.0 in /  34097 hPa Calm     95 % 0.0 in /  0 mm
07:34 -1.6 °F /  -18.7 °C -2.3 °F /  -19.1 °C 1007.0 in /  34097 hPa Calm     95 % 0.0 in /  0 mm
07:39 -1.6 °F /  -18.7 °C -2.3 °F /  -19.1 °C 1007.0 in /  34097 hPa Calm     95 % 0.0 in /  0 mm
07:43 -1.6 °F /  -18.7 °C -2.3 °F /  -19.1 °C 1007.0 in /  34097 hPa SW 0.2 mph /  0.3 km/h 3.5 mph /  5.6 km/h 95 % 0.0 in /  0 mm
07:44 -1.6 °F /  -18.7 °C -2.3 °F /  -19.1 °C 1007.0 in /  34097 hPa SW 0.8 mph /  1.3 km/h 4.7 mph /  7.6 km/h 95 % 0.0 in /  0 mm
07:45 -1.6 °F /  -18.7 °C -2.3 °F /  -19.1 °C 1007.0 in /  34097 hPa SW 1.1 mph /  1.8 km/h 4.7 mph /  7.6 km/h 95 % 0.0 in /  0 mm
07:46 -1.6 °F /  -18.7 °C -2.3 °F /  -19.1 °C 1007.0 in /  34097 hPa SW 1.3 mph /  2.1 km/h 4.7 mph /  7.6 km/h 95 % 0.0 in /  0 mm
07:47 -1.5 °F /  -18.6 °C -2.2 °F /  -19 °C 1007.0 in /  34097 hPa SW 1.4 mph /  2.3 km/h 4.7 mph /  7.6 km/h 95 % 0.0 in /  0 mm
07:51 -1.5 °F /  -18.6 °C -2.2 °F /  -19 °C 1007.0 in /  34097 hPa SW 1.4 mph /  2.3 km/h 4.7 mph /  7.6 km/h 95 % 0.0 in /  0 mm
07:56 -1.5 °F /  -18.6 °C -2.2 °F /  -19 °C 1007.0 in /  34097 hPa North 0.2 mph /  0.3 km/h   95 % 0.0 in /  0 mm
07:57 -1.5 °F /  -18.6 °C -2.2 °F /  -19 °C 1007.0 in /  34097 hPa Calm     95 % 0.0 in /  0 mm
08:02 -1.5 °F /  -18.6 °C -2.2 °F /  -19 °C 1007.0 in /  34097 hPa Calm     95 % 0.0 in /  0 mm
08:03 -1.5 °F /  -18.6 °C -2.2 °F /  -19 °C 1007.0 in /  34097 hPa Calm     95 % 0.0 in /  0 mm
08:09 -1.5 °F /  -18.6 °C -2.2 °F /  -19 °C 1007.0 in /  34097 hPa Calm     95 % 0.0 in /  0 mm
08:13 -1.5 °F /  -18.6 °C -2.2 °F /  -19 °C 1007.0 in /  34097 hPa Calm     95 % 0.0 in /  0 mm
08:17 -1.4 °F /  -18.6 °C -2.1 °F /  -18.9 °C 1007.0 in /  34097 hPa Calm     95 % 0.0 in /  0 mm
08:18 -1.4 °F /  -18.6 °C -2.1 °F /  -18.9 °C 1007.0 in /  34097 hPa Calm     95 % 0.0 in /  0 mm
08:23 -1.4 °F /  -18.6 °C -2.1 °F /  -18.9 °C 1007.0 in /  34097 hPa Calm     95 % 0.0 in /  0 mm
08:24 -1.4 °F /  -18.6 °C -2.1 °F /  -18.9 °C 1007.0 in /  34097 hPa Calm     95 % 0.0 in /  0 mm
08:29 -1.4 °F /  -18.6 °C -2.1 °F /  -18.9 °C 1007.0 in /  34097 hPa Calm     95 % 0.0 in /  0 mm
08:31 -1.4 °F /  -18.6 °C -2.1 °F /  -18.9 °C 1007.0 in /  34097 hPa Calm     95 % 0.0 in /  0 mm
08:35 -1.3 °F /  -18.5 °C -2.0 °F /  -18.9 °C 1007.0 in /  34097 hPa Calm     95 % 0.0 in /  0 mm
08:36 -1.3 °F /  -18.5 °C -2.0 °F /  -18.9 °C 1007.0 in /  34097 hPa Calm     95 % 0.0 in /  0 mm
08:37 -1.3 °F /  -18.5 °C -2.0 °F /  -18.9 °C 1007.0 in /  34097 hPa Calm     95 % 0.0 in /  0 mm
08:39 -1.3 °F /  -18.5 °C -2.0 °F /  -18.9 °C 1007.0 in /  34097 hPa Calm     95 % 0.0 in /  0 mm
08:42 -1.3 °F /  -18.5 °C -2.0 °F /  -18.9 °C 1007.0 in /  34097 hPa Calm     95 % 0.0 in /  0 mm
08:47 -1.2 °F /  -18.4 °C -1.9 °F /  -18.8 °C 1007.0 in /  34097 hPa Calm     95 % 0.0 in /  0 mm
08:48 -1.2 °F /  -18.4 °C -1.9 °F /  -18.8 °C 1007.0 in /  34097 hPa Calm     95 % 0.0 in /  0 mm
08:49 -1.2 °F /  -18.4 °C -1.9 °F /  -18.8 °C 1007.0 in /  34097 hPa Calm     95 % 0.0 in /  0 mm
08:54 -1.1 °F /  -18.4 °C -1.8 °F /  -18.8 °C 1007.0 in /  34097 hPa Calm     95 % 0.0 in /  0 mm
08:55 -1.1 °F /  -18.4 °C -1.8 °F /  -18.8 °C 1007.0 in /  34097 hPa Calm     95 % 0.0 in /  0 mm
09:01 -1.0 °F /  -18.3 °C -1.7 °F /  -18.7 °C 1007.0 in /  34097 hPa Calm     95 % 0.0 in /  0 mm
09:04 -1.0 °F /  -18.3 °C -1.7 °F /  -18.7 °C 1007.0 in /  34097 hPa Calm     95 % 0.0 in /  0 mm
09:05 -1.0 °F /  -18.3 °C -1.7 °F /  -18.7 °C 1007.0 in /  34097 hPa Calm     95 % 0.0 in /  0 mm
09:09 -1.0 °F /  -18.3 °C -1.7 °F /  -18.7 °C 1007.0 in /  34097 hPa Calm     95 % 0.0 in /  0 mm
09:11 -0.9 °F /  -18.3 °C -1.6 °F /  -18.7 °C 1007.0 in /  34097 hPa Calm     95 % 0.0 in /  0 mm
09:13 -0.8 °F /  -18.2 °C -1.5 °F /  -18.6 °C 1007.0 in /  34097 hPa Calm     95 % 0.0 in /  0 mm
09:14 -0.8 °F /  -18.2 °C -1.5 °F /  -18.6 °C 1007.0 in /  34097 hPa SSW 0.2 mph /  0.3 km/h 2.6 mph /  4.2 km/h 95 % 0.0 in /  0 mm
09:18 -0.7 °F /  -18.2 °C -1.4 °F /  -18.6 °C 1007.0 in /  34097 hPa SSW 0.3 mph /  0.5 km/h 2.6 mph /  4.2 km/h 95 % 0.0 in /  0 mm
09:20 -0.7 °F /  -18.2 °C -1.4 °F /  -18.6 °C 1007.0 in /  34097 hPa SSW 0.3 mph /  0.5 km/h 2.6 mph /  4.2 km/h 95 % 0.0 in /  0 mm
09:25 -0.5 °F /  -18.1 °C -1.2 °F /  -18.4 °C 1007.0 in /  34097 hPa Calm     95 % 0.0 in /  0 mm
09:26 -0.5 °F /  -18.1 °C -1.2 °F /  -18.4 °C 1007.0 in /  34097 hPa Calm     95 % 0.0 in /  0 mm
09:27 -0.5 °F /  -18.1 °C -1.2 °F /  -18.4 °C 1007.0 in /  34097 hPa Calm     95 % 0.0 in /  0 mm
09:28 -0.5 °F /  -18.1 °C -1.2 °F /  -18.4 °C 1007.0 in /  34097 hPa Calm     95 % 0.0 in /  0 mm
09:31 -0.5 °F /  -18.1 °C -1.2 °F /  -18.4 °C 1007.0 in /  34097 hPa Calm     95 % 0.0 in /  0 mm
09:36 -0.5 °F /  -18.1 °C -1.2 °F /  -18.4 °C 1007.0 in /  34097 hPa Calm     95 % 0.0 in /  0 mm
09:40 -0.4 °F /  -18 °C -1.1 °F /  -18.4 °C 1007.0 in /  34097 hPa Calm     95 % 0.0 in /  0 mm
09:45 -0.3 °F /  -17.9 °C -0.8 °F /  -18.2 °C 1007.0 in /  34097 hPa Calm     96 % 0.0 in /  0 mm
09:48 -0.3 °F /  -17.9 °C -0.8 °F /  -18.2 °C 1007.0 in /  34097 hPa Calm     96 % 0.0 in /  0 mm
09:53 -0.1 °F /  -17.8 °C -0.7 °F /  -18.2 °C 1007.0 in /  34097 hPa Calm     96 % 0.0 in /  0 mm
09:58 0.0 °F /  -17.8 °C -0.6 °F /  -18.1 °C 1007.0 in /  34097 hPa Calm     96 % 0.0 in /  0 mm
09:59 0.0 °F /  -17.8 °C -0.6 °F /  -18.1 °C 1007.0 in /  34097 hPa Calm     96 % 0.0 in /  0 mm
10:03 0.1 °F /  -17.7 °C -0.4 °F /  -18 °C 1007.0 in /  34097 hPa Calm     96 % 0.0 in /  0 mm
10:05 0.1 °F /  -17.7 °C -0.4 °F /  -18 °C 1007.0 in /  34097 hPa Calm     96 % 0.0 in /  0 mm
10:09 0.2 °F /  -17.7 °C -0.4 °F /  -18 °C 1007.0 in /  34097 hPa Calm     96 % 0.0 in /  0 mm
10:11 0.2 °F /  -17.7 °C -0.4 °F /  -18 °C 1007.0 in /  34097 hPa Calm     96 % 0.0 in /  0 mm
10:16 0.3 °F /  -17.6 °C -0.3 °F /  -17.9 °C 1007.0 in /  34097 hPa Calm     96 % 0.0 in /  0 mm
10:21 0.5 °F /  -17.5 °C -0.1 °F /  -17.8 °C 1007.0 in /  34097 hPa SW 0.3 mph /  0.5 km/h 4.3 mph /  6.9 km/h 96 % 0.0 in /  0 mm
10:26 0.7 °F /  -17.4 °C 0.1 °F /  -17.7 °C 1007.0 in /  34097 hPa SSW 2.3 mph /  3.7 km/h 6.1 mph /  9.8 km/h 96 % 0.0 in /  0 mm
10:27 0.7 °F /  -17.4 °C 0.1 °F /  -17.7 °C 1007.0 in /  34097 hPa SSW 2.6 mph /  4.2 km/h 6.4 mph /  10.3 km/h 96 % 0.0 in /  0 mm
10:32 0.8 °F /  -17.3 °C 0.2 °F /  -17.7 °C 1007.0 in /  34097 hPa SSW 3.5 mph /  5.6 km/h 6.4 mph /  10.3 km/h 96 % 0.0 in /  0 mm
10:35 0.9 °F /  -17.3 °C 0.3 °F /  -17.6 °C 1007.0 in /  34097 hPa SSW 2.4 mph /  3.9 km/h 6.4 mph /  10.3 km/h 96 % 0.0 in /  0 mm
10:40 1.0 °F /  -17.2 °C 0.4 °F /  -17.6 °C 1007.0 in /  34097 hPa SSE 0.3 mph /  0.5 km/h 3.5 mph /  5.6 km/h 96 % 0.0 in /  0 mm
10:44 1.1 °F /  -17.2 °C 0.6 °F /  -17.4 °C 1007.0 in /  34097 hPa South 0.3 mph /  0.5 km/h 4.0 mph /  6.4 km/h 96 % 0.0 in /  0 mm
10:50 1.2 °F /  -17.1 °C 0.6 °F /  -17.4 °C 1007.0 in /  34097 hPa SSW 0.5 mph /  0.8 km/h 4.0 mph /  6.4 km/h 96 % 0.0 in /  0 mm
10:52 1.2 °F /  -17.1 °C 0.6 °F /  -17.4 °C 1007.0 in /  34097 hPa SSW 0.5 mph /  0.8 km/h 4.0 mph /  6.4 km/h 96 % 0.0 in /  0 mm
10:56 1.3 °F /  -17.1 °C 0.7 °F /  -17.4 °C 1007.0 in /  34097 hPa Calm     96 % 0.0 in /  0 mm
10:59 1.4 °F /  -17 °C 0.8 °F /  -17.3 °C 1007.0 in /  34097 hPa Calm     96 % 0.0 in /  0 mm
11:02 1.5 °F /  -16.9 °C 0.9 °F /  -17.3 °C 1007.0 in /  34097 hPa Calm     96 % 0.0 in /  0 mm
11:05 1.5 °F /  -16.9 °C 1.1 °F /  -17.2 °C 1007.0 in /  34097 hPa Calm     97 % 0.0 in /  0 mm
11:09 1.6 °F /  -16.9 °C 1.2 °F /  -17.1 °C 1007.0 in /  34097 hPa Calm     97 % 0.0 in /  0 mm
11:10 1.6 °F /  -16.9 °C 1.2 °F /  -17.1 °C 1007.0 in /  34097 hPa Calm     97 % 0.0 in /  0 mm
11:15 1.7 °F /  -16.8 °C 1.3 °F /  -17.1 °C 1007.0 in /  34097 hPa Calm     97 % 0.0 in /  0 mm
11:16 1.7 °F /  -16.8 °C 1.3 °F /  -17.1 °C 1007.0 in /  34097 hPa Calm     97 % 0.0 in /  0 mm
11:21 1.8 °F /  -16.8 °C 1.4 °F /  -17 °C 1007.0 in /  34097 hPa Calm     97 % 0.0 in /  0 mm
11:27 1.9 °F /  -16.7 °C 1.5 °F /  -16.9 °C 1007.0 in /  34097 hPa Calm     97 % 0.0 in /  0 mm
11:28 1.9 °F /  -16.7 °C 1.5 °F /  -16.9 °C 1007.0 in /  34097 hPa Calm     97 % 0.0 in /  0 mm
11:33 2.0 °F /  -16.7 °C 1.4 °F /  -17 °C 1007.0 in /  34097 hPa Calm     96 % 0.3 in /  7.62 mm
11:37 2.0 °F /  -16.7 °C 1.4 °F /  -17 °C 1007.0 in /  34097 hPa Calm     96 % 0.3 in /  7.62 mm
11:41 2.1 °F /  -16.6 °C 1.6 °F /  -16.9 °C 1007.0 in /  34097 hPa Calm     96 % 0.3 in /  7.62 mm
11:44 2.1 °F /  -16.6 °C 1.6 °F /  -16.9 °C 1008.0 in /  34130.9 hPa Calm     96 % 0.3 in /  7.62 mm
11:46 2.1 °F /  -16.6 °C 1.7 °F /  -16.8 °C 1008.0 in /  34130.9 hPa Calm     97 % 0.3 in /  7.62 mm
11:47 2.2 °F /  -16.6 °C 1.8 °F /  -16.8 °C 1008.0 in /  34130.9 hPa Calm     97 % 0.3 in /  7.62 mm
11:52 2.3 °F /  -16.5 °C 1.9 °F /  -16.7 °C 1008.0 in /  34130.9 hPa Calm     97 % 0.3 in /  7.62 mm
11:54 2.4 °F /  -16.4 °C 2.0 °F /  -16.7 °C 1008.0 in /  34130.9 hPa Calm     97 % 0.3 in /  7.62 mm
11:59 2.5 °F /  -16.4 °C 2.1 °F /  -16.6 °C 1007.0 in /  34097 hPa Calm   3.2 mph /  5.1 km/h 97 % 0.3 in /  7.62 mm
12:04 2.6 °F /  -16.3 °C 2.2 °F /  -16.6 °C 1007.0 in /  34097 hPa SSW 1.6 mph /  2.6 km/h 5.5 mph /  8.9 km/h 97 % 0.3 in /  7.62 mm
12:07 2.7 °F /  -16.3 °C 2.3 °F /  -16.5 °C 1007.0 in /  34097 hPa SSW 2.4 mph /  3.9 km/h 5.5 mph /  8.9 km/h 97 % 0.3 in /  7.62 mm
12:11 2.8 °F /  -16.2 °C 2.4 °F /  -16.4 °C 1007.0 in /  34097 hPa SSW 3.1 mph /  5 km/h 5.0 mph /  8 km/h 97 % 0.3 in /  7.62 mm
12:14 2.8 °F /  -16.2 °C 2.4 °F /  -16.4 °C 1006.0 in /  34063.2 hPa South 3.2 mph /  5.1 km/h 6.9 mph /  11.1 km/h 97 % 0.3 in /  7.62 mm
12:19 2.9 °F /  -16.2 °C 2.4 °F /  -16.4 °C 1006.0 in /  34063.2 hPa SSE 3.7 mph /  6 km/h 6.9 mph /  11.1 km/h 97 % 0.3 in /  7.62 mm
12:20 2.9 °F /  -16.2 °C 2.4 °F /  -16.4 °C 1006.0 in /  34063.2 hPa SSE 3.7 mph /  6 km/h 6.9 mph /  11.1 km/h 97 % 0.3 in /  7.62 mm
12:25 3.0 °F /  -16.1 °C 2.6 °F /  -16.3 °C 1006.0 in /  34063.2 hPa SSE 4.2 mph /  6.8 km/h 6.4 mph /  10.3 km/h 97 % 0.3 in /  7.62 mm
12:26 3.0 °F /  -16.1 °C 2.6 °F /  -16.3 °C 1006.0 in /  34063.2 hPa SE 4.0 mph /  6.4 km/h 6.1 mph /  9.8 km/h 97 % 0.3 in /  7.62 mm
12:29 3.1 °F /  -16.1 °C 2.7 °F /  -16.3 °C 1006.0 in /  34063.2 hPa SE 3.7 mph /  6 km/h 6.1 mph /  9.8 km/h 97 % 0.0 in /  0 mm
12:36 3.3 °F /  -15.9 °C 2.9 °F /  -16.2 °C 1006.0 in /  34063.2 hPa SE 3.2 mph /  5.1 km/h 5.8 mph /  9.3 km/h 97 % 0.0 in /  0 mm
12:41 3.4 °F /  -15.9 °C 2.9 °F /  -16.2 °C 1006.0 in /  34063.2 hPa SSE 3.2 mph /  5.1 km/h 5.8 mph /  9.3 km/h 97 % 0.0 in /  0 mm
12:43 3.5 °F /  -15.8 °C 3.1 °F /  -16.1 °C 1006.0 in /  34063.2 hPa SSE 3.2 mph /  5.1 km/h 5.8 mph /  9.3 km/h 97 % 0.0 in /  0 mm
12:48 3.6 °F /  -15.8 °C 3.2 °F /  -16 °C 1006.0 in /  34063.2 hPa SSE 1.9 mph /  3.1 km/h 5.0 mph /  8 km/h 97 % 0.0 in /  0 mm
12:49 3.6 °F /  -15.8 °C 3.2 °F /  -16 °C 1006.0 in /  34063.2 hPa SSE 1.4 mph /  2.3 km/h 4.3 mph /  6.9 km/h 97 % 0.0 in /  0 mm
12:54 3.7 °F /  -15.7 °C 3.3 °F /  -15.9 °C 1006.0 in /  34063.2 hPa SE 1.0 mph /  1.6 km/h 4.3 mph /  6.9 km/h 97 % 0.0 in /  0 mm
12:57 3.7 °F /  -15.7 °C 3.3 °F /  -15.9 °C 1005.0 in /  34029.3 hPa SE 1.3 mph /  2.1 km/h 4.3 mph /  6.9 km/h 97 % 0.0 in /  0 mm
13:02 3.7 °F /  -15.7 °C 3.3 °F /  -15.9 °C 1005.0 in /  34029.3 hPa SE 1.4 mph /  2.3 km/h 4.3 mph /  6.9 km/h 97 % 0.0 in /  0 mm
13:05 3.8 °F /  -15.7 °C 3.4 °F /  -15.9 °C 1005.0 in /  34029.3 hPa SE 1.9 mph /  3.1 km/h 5.0 mph /  8 km/h 97 % 0.0 in /  0 mm
13:10 3.8 °F /  -15.7 °C 3.4 °F /  -15.9 °C 1005.0 in /  34029.3 hPa SE 2.6 mph /  4.2 km/h 5.5 mph /  8.9 km/h 97 % 0.0 in /  0 mm
13:11 3.8 °F /  -15.7 °C 3.4 °F /  -15.9 °C 1005.0 in /  34029.3 hPa ESE 2.4 mph /  3.9 km/h 5.5 mph /  8.9 km/h 97 % 0.0 in /  0 mm
13:16 3.9 °F /  -15.6 °C 3.4 °F /  -15.9 °C 1005.0 in /  34029.3 hPa SE 1.1 mph /  1.8 km/h 5.5 mph /  8.9 km/h 97 % 0.0 in /  0 mm
13:22 4.0 °F /  -15.6 °C 3.6 °F /  -15.8 °C 1005.0 in /  34029.3 hPa SSE 0.5 mph /  0.8 km/h 3.2 mph /  5.1 km/h 97 % 0.0 in /  0 mm
13:27 4.1 °F /  -15.5 °C 3.7 °F /  -15.7 °C 1005.0 in /  34029.3 hPa SSE 1.3 mph /  2.1 km/h 4.0 mph /  6.4 km/h 97 % 0.0 in /  0 mm
13:31 4.1 °F /  -15.5 °C 3.7 °F /  -15.7 °C 1005.0 in /  34029.3 hPa SE 2.4 mph /  3.9 km/h 4.7 mph /  7.6 km/h 97 % 0.0 in /  0 mm
13:36 4.2 °F /  -15.4 °C 3.8 °F /  -15.7 °C 1005.0 in /  34029.3 hPa SE 2.6 mph /  4.2 km/h 4.7 mph /  7.6 km/h 97 % 0.0 in /  0 mm
13:37 4.2 °F /  -15.4 °C 3.8 °F /  -15.7 °C 1005.0 in /  34029.3 hPa SE 2.7 mph /  4.3 km/h 4.7 mph /  7.6 km/h 97 % 0.0 in /  0 mm
13:42 4.1 °F /  -15.5 °C 3.7 °F /  -15.7 °C 1005.0 in /  34029.3 hPa ESE 2.4 mph /  3.9 km/h 4.3 mph /  6.9 km/h 97 % 0.0 in /  0 mm
13:43 4.1 °F /  -15.5 °C 3.7 °F /  -15.7 °C 1003.9 in /  33992.1 hPa SE 2.4 mph /  3.9 km/h 4.3 mph /  6.9 km/h 97 % 0.0 in /  0 mm
13:45 4.1 °F /  -15.5 °C 3.7 °F /  -15.7 °C 1003.9 in /  33992.1 hPa SE 2.7 mph /  4.3 km/h 4.3 mph /  6.9 km/h 97 % 0.0 in /  0 mm
13:48 4.2 °F /  -15.4 °C 3.8 °F /  -15.7 °C 1003.9 in /  33992.1 hPa SE 1.8 mph /  2.9 km/h 4.3 mph /  6.9 km/h 97 % 0.0 in /  0 mm
13:50 4.2 °F /  -15.4 °C 3.8 °F /  -15.7 °C 1003.9 in /  33992.1 hPa SE 1.4 mph /  2.3 km/h 4.3 mph /  6.9 km/h 97 % 0.0 in /  0 mm
13:52 4.2 °F /  -15.4 °C 3.8 °F /  -15.7 °C 1003.9 in /  33992.1 hPa SE 1.1 mph /  1.8 km/h 4.3 mph /  6.9 km/h 97 % 0.0 in /  0 mm
13:57 4.3 °F /  -15.4 °C 3.9 °F /  -15.6 °C 1003.9 in /  33992.1 hPa Calm     97 % 0.0 in /  0 mm
13:58 4.3 °F /  -15.4 °C 3.9 °F /  -15.6 °C 1003.9 in /  33992.1 hPa Calm     97 % 0.0 in /  0 mm
13:59 4.3 °F /  -15.4 °C 3.9 °F /  -15.6 °C 1003.9 in /  33992.1 hPa Calm     97 % 0.0 in /  0 mm
14:09 4.3 °F /  -15.4 °C 3.9 °F /  -15.6 °C 1003.9 in /  33992.1 hPa Calm     97 % 0.0 in /  0 mm
14:11 4.3 °F /  -15.4 °C 3.9 °F /  -15.6 °C 1003.9 in /  33992.1 hPa Calm     97 % 0.0 in /  0 mm
14:16 4.4 °F /  -15.3 °C 3.9 °F /  -15.6 °C 1005.0 in /  34029.3 hPa Calm     97 % 0.0 in /  0 mm
14:21 4.4 °F /  -15.3 °C 3.9 °F /  -15.6 °C 1005.0 in /  34029.3 hPa Calm     97 % 0.0 in /  0 mm
14:25 4.4 °F /  -15.3 °C 3.9 °F /  -15.6 °C 1005.0 in /  34029.3 hPa Calm     97 % 0.0 in /  0 mm
14:30 4.5 °F /  -15.3 °C 4.1 °F /  -15.5 °C 1005.0 in /  34029.3 hPa Calm     97 % 0.0 in /  0 mm
14:32 4.5 °F /  -15.3 °C 4.1 °F /  -15.5 °C 1005.0 in /  34029.3 hPa Calm     97 % 0.0 in /  0 mm
14:33 4.5 °F /  -15.3 °C 4.1 °F /  -15.5 °C 1005.0 in /  34029.3 hPa Calm     97 % 0.0 in /  0 mm
14:38 4.6 °F /  -15.2 °C 4.2 °F /  -15.4 °C 1005.0 in /  34029.3 hPa Calm     97 % 0.0 in /  0 mm
14:43 4.6 °F /  -15.2 °C 4.2 °F /  -15.4 °C 1003.9 in /  33992.1 hPa Calm     97 % 0.0 in /  0 mm
14:45 4.6 °F /  -15.2 °C 4.2 °F /  -15.4 °C 1003.9 in /  33992.1 hPa Calm     97 % 0.0 in /  0 mm
14:50 4.7 °F /  -15.2 °C 4.3 °F /  -15.4 °C 1003.9 in /  33992.1 hPa Calm     97 % 0.0 in /  0 mm
14:52 4.7 °F /  -15.2 °C 4.3 °F /  -15.4 °C 1003.9 in /  33992.1 hPa Calm     97 % 0.0 in /  0 mm
14:57 4.7 °F /  -15.2 °C 4.3 °F /  -15.4 °C 1003.9 in /  33992.1 hPa Calm     97 % 0.0 in /  0 mm
14:59 4.7 °F /  -15.2 °C 4.3 °F /  -15.4 °C 1005.0 in /  34029.3 hPa Calm     97 % 0.0 in /  0 mm
15:05 4.7 °F /  -15.2 °C 4.3 °F /  -15.4 °C 1005.0 in /  34029.3 hPa Calm     97 % 0.0 in /  0 mm
15:06 4.8 °F /  -15.1 °C 4.4 °F /  -15.3 °C 1005.0 in /  34029.3 hPa Calm     97 % 0.0 in /  0 mm
15:11 4.8 °F /  -15.1 °C 4.4 °F /  -15.3 °C 1005.0 in /  34029.3 hPa Calm     97 % 0.0 in /  0 mm
15:12 4.8 °F /  -15.1 °C 4.4 °F /  -15.3 °C 1005.0 in /  34029.3 hPa Calm     97 % 0.0 in /  0 mm
15:18 4.8 °F /  -15.1 °C 4.4 °F /  -15.3 °C 1005.0 in /  34029.3 hPa Calm     97 % 0.0 in /  0 mm
15:21 4.8 °F /  -15.1 °C 4.4 °F /  -15.3 °C 1005.0 in /  34029.3 hPa Calm     97 % 0.0 in /  0 mm
15:24 4.8 °F /  -15.1 °C 4.4 °F /  -15.3 °C 1005.0 in /  34029.3 hPa Calm     97 % 0.0 in /  0 mm
15:25 4.8 °F /  -15.1 °C 4.4 °F /  -15.3 °C 1005.0 in /  34029.3 hPa Calm     97 % 0.0 in /  0 mm
15:30 4.8 °F /  -15.1 °C 4.4 °F /  -15.3 °C 1005.0 in /  34029.3 hPa Calm     97 % 0.0 in /  0 mm
15:35 4.8 °F /  -15.1 °C 4.4 °F /  -15.3 °C 1005.0 in /  34029.3 hPa Calm     97 % 0.0 in /  0 mm
15:40 4.8 °F /  -15.1 °C 4.4 °F /  -15.3 °C 1005.0 in /  34029.3 hPa Calm     97 % 0.0 in /  0 mm
15:41 4.8 °F /  -15.1 °C 4.4 °F /  -15.3 °C 1005.0 in /  34029.3 hPa Calm     97 % 0.0 in /  0 mm
15:46 4.8 °F /  -15.1 °C 4.4 °F /  -15.3 °C 1005.0 in /  34029.3 hPa Calm     97 % 0.0 in /  0 mm
15:49 4.7 °F /  -15.2 °C 4.3 °F /  -15.4 °C 1005.0 in /  34029.3 hPa Calm     97 % 0.0 in /  0 mm
15:50 4.7 °F /  -15.2 °C 4.3 °F /  -15.4 °C 1005.0 in /  34029.3 hPa Calm     97 % 0.0 in /  0 mm
15:55 4.7 °F /  -15.2 °C 4.3 °F /  -15.4 °C 1005.0 in /  34029.3 hPa Calm     97 % 0.0 in /  0 mm
16:00 4.7 °F /  -15.2 °C 4.3 °F /  -15.4 °C 1005.0 in /  34029.3 hPa Calm     97 % 0.0 in /  0 mm
16:01 4.7 °F /  -15.2 °C 4.3 °F /  -15.4 °C 1005.0 in /  34029.3 hPa Calm     97 % 0.0 in /  0 mm
16:03 4.7 °F /  -15.2 °C 4.3 °F /  -15.4 °C 1005.0 in /  34029.3 hPa Calm     97 % 0.0 in /  0 mm
16:08 4.6 °F /  -15.2 °C 4.2 °F /  -15.4 °C 1005.0 in /  34029.3 hPa Calm     97 % 0.0 in /  0 mm
16:13 4.6 °F /  -15.2 °C 4.2 °F /  -15.4 °C 1005.0 in /  34029.3 hPa Calm     97 % 0.0 in /  0 mm
16:17 4.5 °F /  -15.3 °C 4.1 °F /  -15.5 °C 1005.0 in /  34029.3 hPa Calm     97 % 0.0 in /  0 mm
16:22 4.5 °F /  -15.3 °C 4.1 °F /  -15.5 °C 1005.0 in /  34029.3 hPa Calm     97 % 0.0 in /  0 mm
16:24 4.5 °F /  -15.3 °C 4.1 °F /  -15.5 °C 1005.0 in /  34029.3 hPa Calm     97 % 0.0 in /  0 mm
16:29 4.4 °F /  -15.3 °C 3.9 °F /  -15.6 °C 1005.0 in /  34029.3 hPa Calm     97 % 0.0 in /  0 mm
16:34 4.4 °F /  -15.3 °C 3.9 °F /  -15.6 °C 1005.0 in /  34029.3 hPa Calm     97 % 0.0 in /  0 mm
16:39 4.3 °F /  -15.4 °C 3.9 °F /  -15.6 °C 1005.0 in /  34029.3 hPa Calm     97 % 0.0 in /  0 mm
16:44 4.2 °F /  -15.4 °C 3.8 °F /  -15.7 °C 1005.0 in /  34029.3 hPa Calm     97 % 0.0 in /  0 mm
16:45 4.2 °F /  -15.4 °C 3.8 °F /  -15.7 °C 1005.0 in /  34029.3 hPa Calm     97 % 0.0 in /  0 mm
16:49 4.1 °F /  -15.5 °C 3.7 °F /  -15.7 °C 1005.0 in /  34029.3 hPa Calm     97 % 0.0 in /  0 mm
16:52 4.1 °F /  -15.5 °C 3.7 °F /  -15.7 °C 1005.0 in /  34029.3 hPa Calm     97 % 0.0 in /  0 mm
16:57 4.0 °F /  -15.6 °C 3.6 °F /  -15.8 °C 1005.0 in /  34029.3 hPa SW 1.0 mph /  1.6 km/h 4.0 mph /  6.4 km/h 97 % 0.0 in /  0 mm
17:02 3.9 °F /  -15.6 °C 3.4 °F /  -15.9 °C 1003.9 in /  33992.1 hPa SW 1.1 mph /  1.8 km/h 4.0 mph /  6.4 km/h 97 % 0.0 in /  0 mm
17:04 3.9 °F /  -15.6 °C 3.4 °F /  -15.9 °C 1003.9 in /  33992.1 hPa SW 1.1 mph /  1.8 km/h 4.0 mph /  6.4 km/h 97 % 0.0 in /  0 mm
17:09 3.8 °F /  -15.7 °C 3.4 °F /  -15.9 °C 1003.9 in /  33992.1 hPa Calm   2.1 mph /  3.4 km/h 97 % 0.0 in /  0 mm
17:12 3.8 °F /  -15.7 °C 3.4 °F /  -15.9 °C 1003.9 in /  33992.1 hPa Calm     97 % 0.0 in /  0 mm
17:17 3.7 °F /  -15.7 °C 3.3 °F /  -15.9 °C 1003.9 in /  33992.1 hPa Calm     97 % 0.0 in /  0 mm
17:20 3.7 °F /  -15.7 °C 3.3 °F /  -15.9 °C 1003.9 in /  33992.1 hPa Calm     97 % 0.0 in /  0 mm
17:25 3.7 °F /  -15.7 °C 3.3 °F /  -15.9 °C 1003.9 in /  33992.1 hPa Calm     97 % 0.0 in /  0 mm
17:27 3.6 °F /  -15.8 °C 3.2 °F /  -16 °C 1003.9 in /  33992.1 hPa Calm     97 % 0.0 in /  0 mm
17:32 3.6 °F /  -15.8 °C 3.2 °F /  -16 °C 1005.0 in /  34029.3 hPa Calm     97 % 0.0 in /  0 mm
17:37 3.6 °F /  -15.8 °C 3.2 °F /  -16 °C 1005.0 in /  34029.3 hPa Calm     97 % 0.0 in /  0 mm
17:39 3.5 °F /  -15.8 °C 3.1 °F /  -16.1 °C 1005.0 in /  34029.3 hPa Calm     97 % 0.0 in /  0 mm
17:41 3.5 °F /  -15.8 °C 3.1 °F /  -16.1 °C 1005.0 in /  34029.3 hPa Calm     97 % 0.0 in /  0 mm
17:44 3.4 °F /  -15.9 °C 2.9 °F /  -16.2 °C 1005.0 in /  34029.3 hPa Calm     97 % 0.0 in /  0 mm
17:45 3.4 °F /  -15.9 °C 2.9 °F /  -16.2 °C 1005.0 in /  34029.3 hPa Calm     97 % 0.0 in /  0 mm
17:50 3.4 °F /  -15.9 °C 2.9 °F /  -16.2 °C 1005.0 in /  34029.3 hPa Calm     97 % 0.0 in /  0 mm
17:52 3.4 °F /  -15.9 °C 2.9 °F /  -16.2 °C 1005.0 in /  34029.3 hPa Calm     97 % 0.0 in /  0 mm
17:53 3.4 °F /  -15.9 °C 2.9 °F /  -16.2 °C 1005.0 in /  34029.3 hPa Calm     97 % 0.0 in /  0 mm
17:58 3.3 °F /  -15.9 °C 2.9 °F /  -16.2 °C 1003.9 in /  33992.1 hPa SW 0.2 mph /  0.3 km/h 3.2 mph /  5.1 km/h 97 % 0.0 in /  0 mm
17:59 3.3 °F /  -15.9 °C 2.9 °F /  -16.2 °C 1003.9 in /  33992.1 hPa SW 0.2 mph /  0.3 km/h 3.2 mph /  5.1 km/h 97 % 0.0 in /  0 mm
18:00 3.3 °F /  -15.9 °C 2.9 °F /  -16.2 °C 1003.9 in /  33992.1 hPa SW 0.2 mph /  0.3 km/h 3.2 mph /  5.1 km/h 97 % 0.0 in /  0 mm
18:05 3.3 °F /  -15.9 °C 2.9 °F /  -16.2 °C 1003.9 in /  33992.1 hPa Calm     97 % 0.0 in /  0 mm
18:10 3.2 °F /  -16 °C 2.8 °F /  -16.2 °C 1003.9 in /  33992.1 hPa Calm     97 % 0.0 in /  0 mm
18:14 3.2 °F /  -16 °C 2.8 °F /  -16.2 °C 1003.9 in /  33992.1 hPa Calm     97 % 0.0 in /  0 mm
18:15 3.2 °F /  -16 °C 2.8 °F /  -16.2 °C 1003.9 in /  33992.1 hPa Calm     97 % 0.0 in /  0 mm
18:20 3.1 °F /  -16.1 °C 2.7 °F /  -16.3 °C 1003.9 in /  33992.1 hPa Calm     97 % 0.0 in /  0 mm
18:21 3.1 °F /  -16.1 °C 2.7 °F /  -16.3 °C 1003.9 in /  33992.1 hPa Calm     97 % 0.0 in /  0 mm
18:22 3.1 °F /  -16.1 °C 2.5 °F /  -16.4 °C 1003.9 in /  33992.1 hPa Calm     96 % 0.0 in /  0 mm
18:33 3.0 °F /  -16.1 °C 2.4 °F /  -16.4 °C 1003.9 in /  33992.1 hPa Calm     96 % 0.0 in /  0 mm
18:34 3.0 °F /  -16.1 °C 2.4 °F /  -16.4 °C 1003.9 in /  33992.1 hPa Calm     96 % 0.0 in /  0 mm
18:35 3.0 °F /  -16.1 °C 2.4 °F /  -16.4 °C 1003.9 in /  33992.1 hPa Calm     96 % 0.0 in /  0 mm
18:39 3.0 °F /  -16.1 °C 2.4 °F /  -16.4 °C 1003.9 in /  33992.1 hPa West 0.2 mph /  0.3 km/h 3.5 mph /  5.6 km/h 96 % 0.0 in /  0 mm
18:41 3.0 °F /  -16.1 °C 2.4 °F /  -16.4 °C 1003.9 in /  33992.1 hPa West 0.2 mph /  0.3 km/h 3.5 mph /  5.6 km/h 96 % 0.0 in /  0 mm
18:46 2.9 °F /  -16.2 °C 2.4 °F /  -16.4 °C 1003.9 in /  33992.1 hPa Calm     97 % 0.0 in /  0 mm
18:51 2.8 °F /  -16.2 °C 2.4 °F /  -16.4 °C 1003.9 in /  33992.1 hPa Calm     97 % 0.0 in /  0 mm
18:52 2.8 °F /  -16.2 °C 2.4 °F /  -16.4 °C 1003.9 in /  33992.1 hPa Calm     97 % 0.0 in /  0 mm
18:53 2.8 °F /  -16.2 °C 2.4 °F /  -16.4 °C 1003.9 in /  33992.1 hPa Calm     97 % 0.0 in /  0 mm
18:58 2.8 °F /  -16.2 °C 2.4 °F /  -16.4 °C 1003.9 in /  33992.1 hPa Calm     97 % 0.0 in /  0 mm
19:03 2.7 °F /  -16.3 °C 2.3 °F /  -16.5 °C 1003.9 in /  33992.1 hPa Calm     97 % 0.0 in /  0 mm
19:08 2.7 °F /  -16.3 °C 2.3 °F /  -16.5 °C 1003.9 in /  33992.1 hPa Calm     97 % 0.0 in /  0 mm
19:14 2.5 °F /  -16.4 °C 2.1 °F /  -16.6 °C 1003.9 in /  33992.1 hPa Calm     97 % 0.0 in /  0 mm
19:16 2.5 °F /  -16.4 °C 2.1 °F /  -16.6 °C 1003.9 in /  33992.1 hPa Calm     97 % 0.0 in /  0 mm
19:21 2.4 °F /  -16.4 °C 2.0 °F /  -16.7 °C 1003.9 in /  33992.1 hPa Calm     97 % 0.0 in /  0 mm
19:23 2.3 °F /  -16.5 °C 1.9 °F /  -16.7 °C 1003.9 in /  33992.1 hPa Calm     97 % 0.0 in /  0 mm
19:28 2.3 °F /  -16.5 °C 1.9 °F /  -16.7 °C 1003.9 in /  33992.1 hPa Calm     97 % 0.0 in /  0 mm
19:32 2.2 °F /  -16.6 °C 1.6 °F /  -16.9 °C 1003.9 in /  33992.1 hPa Calm   2.6 mph /  4.2 km/h 96 % 0.0 in /  0 mm
19:37 2.1 °F /  -16.6 °C 1.6 °F /  -16.9 °C 1003.9 in /  33992.1 hPa Calm   2.6 mph /  4.2 km/h 96 % 0.0 in /  0 mm
19:39 2.1 °F /  -16.6 °C 1.6 °F /  -16.9 °C 1003.9 in /  33992.1 hPa Calm   2.6 mph /  4.2 km/h 96 % 0.0 in /  0 mm
19:44 2.0 °F /  -16.7 °C 1.4 °F /  -17 °C 1003.9 in /  33992.1 hPa Calm     96 % 0.0 in /  0 mm
19:45 2.0 °F /  -16.7 °C 1.4 °F /  -17 °C 1003.9 in /  33992.1 hPa Calm     96 % 0.0 in /  0 mm
19:50 1.9 °F /  -16.7 °C 1.5 °F /  -16.9 °C 1003.9 in /  33992.1 hPa Calm     97 % 0.0 in /  0 mm
19:51 1.9 °F /  -16.7 °C 1.5 °F /  -16.9 °C 1003.9 in /  33992.1 hPa Calm     97 % 0.0 in /  0 mm
19:52 1.9 °F /  -16.7 °C 1.5 °F /  -16.9 °C 1003.9 in /  33992.1 hPa Calm     97 % 0.0 in /  0 mm
19:57 1.9 °F /  -16.7 °C 1.5 °F /  -16.9 °C 1003.9 in /  33992.1 hPa WNW 0.2 mph /  0.3 km/h 3.2 mph /  5.1 km/h 97 % 0.0 in /  0 mm
20:02 1.9 °F /  -16.7 °C 1.5 °F /  -16.9 °C 1003.9 in /  33992.1 hPa WNW 0.2 mph /  0.3 km/h 3.2 mph /  5.1 km/h 97 % 0.0 in /  0 mm
20:07 1.9 °F /  -16.7 °C 1.5 °F /  -16.9 °C 1003.9 in /  33992.1 hPa Calm     97 % 0.0 in /  0 mm
20:10 1.9 °F /  -16.7 °C 1.5 °F /  -16.9 °C 1003.9 in /  33992.1 hPa Calm     97 % 0.0 in /  0 mm
20:15 1.9 °F /  -16.7 °C 1.5 °F /  -16.9 °C 1003.9 in /  33992.1 hPa Calm     97 % 0.0 in /  0 mm
20:18 1.9 °F /  -16.7 °C 1.5 °F /  -16.9 °C 1003.9 in /  33992.1 hPa Calm     97 % 0.0 in /  0 mm
20:19 1.9 °F /  -16.7 °C 1.5 °F /  -16.9 °C 1003.9 in /  33992.1 hPa Calm     97 % 0.0 in /  0 mm
20:23 2.0 °F /  -16.7 °C 1.4 °F /  -17 °C 1003.9 in /  33992.1 hPa Calm     96 % 0.0 in /  0 mm
20:28 2.0 °F /  -16.7 °C 1.4 °F /  -17 °C 1003.9 in /  33992.1 hPa Calm     96 % 0.0 in /  0 mm
20:29 2.0 °F /  -16.7 °C 1.4 °F /  -17 °C 1003.9 in /  33992.1 hPa Calm     96 % 0.0 in /  0 mm
20:33 2.0 °F /  -16.7 °C 1.4 °F /  -17 °C 1003.9 in /  33992.1 hPa Calm     96 % 0.0 in /  0 mm
20:34 2.0 °F /  -16.7 °C 1.4 °F /  -17 °C 1003.9 in /  33992.1 hPa Calm     96 % 0.0 in /  0 mm
20:35 2.0 °F /  -16.7 °C 1.6 °F /  -16.9 °C 1003.9 in /  33992.1 hPa Calm     97 % 0.0 in /  0 mm
20:40 2.0 °F /  -16.7 °C 1.6 °F /  -16.9 °C 1003.9 in /  33992.1 hPa Calm     97 % 0.0 in /  0 mm
20:41 2.0 °F /  -16.7 °C 1.6 °F /  -16.9 °C 1003.9 in /  33992.1 hPa Calm     97 % 0.0 in /  0 mm
20:47 2.0 °F /  -16.7 °C 1.6 °F /  -16.9 °C 1003.9 in /  33992.1 hPa Calm     97 % 0.0 in /  0 mm
20:49 2.0 °F /  -16.7 °C 1.6 °F /  -16.9 °C 1003.9 in /  33992.1 hPa Calm     97 % 0.0 in /  0 mm
20:54 2.1 °F /  -16.6 °C 1.7 °F /  -16.8 °C 1003.9 in /  33992.1 hPa Calm     97 % 0.0 in /  0 mm
20:59 2.1 °F /  -16.6 °C 1.7 °F /  -16.8 °C 1002.9 in /  33958.2 hPa Calm     97 % 0.0 in /  0 mm
21:01 2.1 °F /  -16.6 °C 1.7 °F /  -16.8 °C 1002.9 in /  33958.2 hPa Calm     97 % 0.0 in /  0 mm
21:06 2.1 °F /  -16.6 °C 1.7 °F /  -16.8 °C 1002.9 in /  33958.2 hPa Calm     97 % 0.0 in /  0 mm
21:11 2.1 °F /  -16.6 °C 1.7 °F /  -16.8 °C 1002.9 in /  33958.2 hPa Calm     97 % 0.0 in /  0 mm
21:14 2.1 °F /  -16.6 °C 1.7 °F /  -16.8 °C 1002.9 in /  33958.2 hPa Calm     97 % 0.0 in /  0 mm
21:16 2.1 °F /  -16.6 °C 1.7 °F /  -16.8 °C 1002.9 in /  33958.2 hPa Calm     97 % 0.0 in /  0 mm
21:17 2.1 °F /  -16.6 °C 1.7 °F /  -16.8 °C 1002.9 in /  33958.2 hPa Calm     97 % 0.0 in /  0 mm
21:19 2.1 °F /  -16.6 °C 1.7 °F /  -16.8 °C 1002.9 in /  33958.2 hPa Calm     97 % 0.0 in /  0 mm
21:24 2.0 °F /  -16.7 °C 1.6 °F /  -16.9 °C 1002.9 in /  33958.2 hPa Calm     97 % 0.0 in /  0 mm
21:26 2.0 °F /  -16.7 °C 1.6 °F /  -16.9 °C 1002.9 in /  33958.2 hPa Calm     97 % 0.0 in /  0 mm
21:27 2.0 °F /  -16.7 °C 1.6 °F /  -16.9 °C 1002.9 in /  33958.2 hPa Calm     97 % 0.0 in /  0 mm
21:32 1.9 °F /  -16.7 °C 1.5 °F /  -16.9 °C 1002.9 in /  33958.2 hPa Calm     97 % 0.0 in /  0 mm
21:34 1.9 °F /  -16.7 °C 1.5 °F /  -16.9 °C 1002.9 in /  33958.2 hPa Calm     97 % 0.0 in /  0 mm
21:38 1.9 °F /  -16.7 °C 1.5 °F /  -16.9 °C 1002.9 in /  33958.2 hPa Calm     97 % 0.0 in /  0 mm
21:43 1.7 °F /  -16.8 °C 1.3 °F /  -17.1 °C 1002.9 in /  33958.2 hPa Calm     97 % 0.0 in /  0 mm
21:47 1.7 °F /  -16.8 °C 1.3 °F /  -17.1 °C 1002.9 in /  33958.2 hPa Calm     97 % 0.0 in /  0 mm
21:52 1.6 °F /  -16.9 °C 1.2 °F /  -17.1 °C 1002.9 in /  33958.2 hPa Calm     97 % 0.0 in /  0 mm
21:53 1.6 °F /  -16.9 °C 1.2 °F /  -17.1 °C 1002.9 in /  33958.2 hPa Calm     97 % 0.0 in /  0 mm
21:55 1.6 °F /  -16.9 °C 1.2 °F /  -17.1 °C 1002.9 in /  33958.2 hPa Calm     97 % 0.0 in /  0 mm
22:01 1.6 °F /  -16.9 °C 1.2 °F /  -17.1 °C 1002.9 in /  33958.2 hPa Calm     97 % 0.0 in /  0 mm
22:08 1.4 °F /  -17 °C 1.0 °F /  -17.2 °C 1002.9 in /  33958.2 hPa Calm     97 % 0.0 in /  0 mm
22:14 1.4 °F /  -17 °C 1.0 °F /  -17.2 °C 1002.9 in /  33958.2 hPa Calm     97 % 0.0 in /  0 mm
22:17 1.4 °F /  -17 °C 1.0 °F /  -17.2 °C 1002.9 in /  33958.2 hPa Calm     97 % 0.0 in /  0 mm
22:19 1.4 °F /  -17 °C 1.0 °F /  -17.2 °C 1002.9 in /  33958.2 hPa Calm     97 % 0.0 in /  0 mm
22:34 1.3 °F /  -17.1 °C 0.9 °F /  -17.3 °C 1002.9 in /  33958.2 hPa North 0.2 mph /  0.3 km/h 2.6 mph /  4.2 km/h 97 % 0.0 in /  0 mm
22:38 1.3 °F /  -17.1 °C 0.9 °F /  -17.3 °C 1002.9 in /  33958.2 hPa North 0.2 mph /  0.3 km/h 2.6 mph /  4.2 km/h 97 % 0.0 in /  0 mm
22:45 1.3 °F /  -17.1 °C 0.9 °F /  -17.3 °C 1001.9 in /  33924.3 hPa Calm     97 % 0.0 in /  0 mm
22:46 1.3 °F /  -17.1 °C 0.9 °F /  -17.3 °C 1001.9 in /  33924.3 hPa Calm     97 % 0.0 in /  0 mm
22:47 1.3 °F /  -17.1 °C 0.9 °F /  -17.3 °C 1001.9 in /  33924.3 hPa Calm     97 % 0.0 in /  0 mm
22:48 1.3 °F /  -17.1 °C 0.9 °F /  -17.3 °C 1001.9 in /  33924.3 hPa Calm     97 % 0.0 in /  0 mm
22:49 1.3 °F /  -17.1 °C 0.9 °F /  -17.3 °C 1001.9 in /  33924.3 hPa Calm     97 % 0.0 in /  0 mm
22:50 1.3 °F /  -17.1 °C 0.9 °F /  -17.3 °C 1001.9 in /  33924.3 hPa Calm     97 % 0.0 in /  0 mm
22:51 1.3 °F /  -17.1 °C 0.9 °F /  -17.3 °C 1001.9 in /  33924.3 hPa Calm     97 % 0.0 in /  0 mm
22:55 1.3 °F /  -17.1 °C 0.9 °F /  -17.3 °C 1001.9 in /  33924.3 hPa Calm     97 % 0.0 in /  0 mm
22:57 1.3 °F /  -17.1 °C 0.9 °F /  -17.3 °C 1001.9 in /  33924.3 hPa Calm     97 % 0.0 in /  0 mm
23:02 1.3 °F /  -17.1 °C 0.9 °F /  -17.3 °C 1002.9 in /  33958.2 hPa Calm     97 % 0.0 in /  0 mm
23:04 1.3 °F /  -17.1 °C 0.9 °F /  -17.3 °C 1002.9 in /  33958.2 hPa Calm     97 % 0.0 in /  0 mm
23:05 1.4 °F /  -17 °C 1.0 °F /  -17.2 °C 1002.9 in /  33958.2 hPa Calm     97 % 0.0 in /  0 mm
23:09 1.4 °F /  -17 °C 1.0 °F /  -17.2 °C 1002.9 in /  33958.2 hPa Calm     97 % 0.0 in /  0 mm
23:15 1.4 °F /  -17 °C 1.0 °F /  -17.2 °C 1001.9 in /  33924.3 hPa Calm     97 % 0.0 in /  0 mm
23:16 1.4 °F /  -17 °C 1.0 °F /  -17.2 °C 1001.9 in /  33924.3 hPa Calm     97 % 0.0 in /  0 mm
23:23 1.5 °F /  -16.9 °C 1.1 °F /  -17.2 °C 1001.9 in /  33924.3 hPa Calm     97 % 0.0 in /  0 mm
23:28 1.5 °F /  -16.9 °C 1.1 °F /  -17.2 °C 1001.9 in /  33924.3 hPa Calm     97 % 0.0 in /  0 mm
23:31 1.5 °F /  -16.9 °C 1.1 °F /  -17.2 °C 1001.9 in /  33924.3 hPa Calm     97 % 0.0 in /  0 mm
23:36 1.5 °F /  -16.9 °C 1.1 °F /  -17.2 °C 1001.9 in /  33924.3 hPa Calm     97 % 0.0 in /  0 mm
23:38 1.5 °F /  -16.9 °C 1.1 °F /  -17.2 °C 1001.9 in /  33924.3 hPa Calm     97 % 0.0 in /  0 mm
23:42 1.5 °F /  -16.9 °C 1.1 °F /  -17.2 °C 1001.9 in /  33924.3 hPa Calm     97 % 0.0 in /  0 mm
23:45 1.5 °F /  -16.9 °C 1.1 °F /  -17.2 °C 1001.9 in /  33924.3 hPa Calm     97 % 0.0 in /  0 mm
23:50 1.6 °F /  -16.9 °C 1.2 °F /  -17.1 °C 1001.9 in /  33924.3 hPa Calm     97 % 0.0 in /  0 mm
23:51 1.6 °F /  -16.9 °C 1.2 °F /  -17.1 °C 1001.9 in /  33924.3 hPa Calm     97 % 0.0 in /  0 mm
23:52 1.6 °F /  -16.9 °C 1.2 °F /  -17.1 °C 1001.9 in /  33924.3 hPa Calm     97 % 0.0 in /  0 mm
23:57 1.6 °F /  -16.9 °C 1.2 °F /  -17.1 °C 1001.9 in /  33924.3 hPa Calm     97 % 0.0 in /  0 mm
Vremenska postaja Senovo
Podatki zbrani iz Weather Underground - 3.75 mb

Script developed by  Jim McMurry - jmcmurry@mwt.net Adapted for the template by  Wim van der Kuil - Leuven-Template.eu

Vremenski podatki so objavljeni na:

European Weather Network

WeatherCloud

Weather Underground

AWEKAS

HAMweather, WeatherForYou, PWS Weather

MapView

Geostik

Slovenia weather network

Oprema, ki se uporablja:

Vremenski program
Cumulus

Vremenski server
Asus

Cumulus

Asus